Time;durP1;ratioP1;P1;durP2;ratioP2;P2;SDS_P1;SDS_P2;PMS_P1;PMS_P2;Temp;Humidity;BMP_temperature;BMP_pressure;BME280_temperature;BME280_humidity;BME280_pressure;Samples;Min_cycle;Max_cycle;Signal;HPM_P1;HPM_P2
2023/01/12 00:01:45;;;;;;;6.03;2.37;;;;;;;;;;4965979;28;20230;-80
2023/01/12 00:04:12;;;;;;;6.47;2.20;;;;;;;;;;4964785;28;20226;-80
2023/01/12 00:06:39;;;;;;;8.07;2.13;;;;;;;;;;4935150;28;20218;-81
2023/01/12 00:09:07;;;;;;;7.93;2.40;;;;;;;;;;4933481;28;20237;-77
2023/01/12 00:11:36;;;;;;;6.53;2.30;;;;;;;;;;4951767;28;20238;-78
2023/01/12 00:14:04;;;;;;;6.17;2.00;;;;;;;;;;4944481;28;20278;-79
2023/01/12 00:16:33;;;;;;;4.73;1.77;;;;;;;;;;4964296;28;20230;-77
2023/01/12 00:19:19;;;;;;;5.80;1.93;;;;;;;;;;4958481;28;20218;-78
2023/01/12 00:24:34;;;;;;;4.83;2.03;;;;;;;;;;4930414;28;20230;-79
2023/01/12 00:27:04;;;;;;;6.20;1.90;;;;;;;;;;4930474;28;21202;-80
2023/01/12 00:29:32;;;;;;;6.63;2.03;;;;;;;;;;4927050;28;20222;-80
2023/01/12 00:31:57;;;;;;;6.73;1.90;;;;;;;;;;4940707;28;20226;-79
2023/01/12 00:34:28;;;;;;;5.03;2.13;;;;;;;;;;4936524;28;20754;-79
2023/01/12 00:36:54;;;;;;;5.67;1.90;;;;;;;;;;4948425;28;20238;-79
2023/01/12 00:39:20;;;;;;;4.07;1.77;;;;;;;;;;4930879;28;20226;-80
2023/01/12 00:47:19;;;;;;;11.57;2.20;;;;;;;;;;4937001;28;20258;-80
2023/01/12 00:49:47;;;;;;;3.27;1.60;;;;;;;;;;4965140;28;20234;-79
2023/01/12 00:52:14;;;;;;;6.80;1.60;;;;;;;;;;4950731;28;20219;-79
2023/01/12 00:54:42;;;;;;;4.40;1.80;;;;;;;;;;4948202;28;20230;-80
2023/01/12 00:57:08;;;;;;;3.63;1.60;;;;;;;;;;4938131;28;20606;-80
2023/01/12 00:59:36;;;;;;;8.70;2.00;;;;;;;;;;4949963;28;20233;-78
2023/01/12 01:02:04;;;;;;;7.10;2.17;;;;;;;;;;4945112;28;20230;-78
2023/01/12 01:04:33;;;;;;;5.33;1.90;;;;;;;;;;4947878;28;20225;-77
2023/01/12 01:07:00;;;;;;;6.63;1.73;;;;;;;;;;4923268;28;20222;-77
2023/01/12 01:09:31;;;;;;;6.57;1.80;;;;;;;;;;4950810;28;20300;-78
2023/01/12 01:11:58;;;;;;;6.93;1.80;;;;;;;;;;4928076;28;20246;-78
2023/01/12 01:14:24;;;;;;;3.83;1.43;;;;;;;;;;4954747;28;20219;-79
2023/01/12 01:16:49;;;;;;;4.67;2.00;;;;;;;;;;4940291;28;20225;-80
2023/01/12 01:19:20;;;;;;;4.83;1.87;;;;;;;;;;4939430;28;20230;-80
2023/01/12 01:21:50;;;;;;;8.43;1.80;;;;;;;;;;4941380;28;20215;-80
2023/01/12 01:24:15;;;;;;;3.47;1.73;;;;;;;;;;4940319;28;20283;-78
2023/01/12 01:26:41;;;;;;;5.23;1.90;;;;;;;;;;4935526;28;20218;-79
2023/01/12 01:29:07;;;;;;;6.07;1.73;;;;;;;;;;4938097;28;20229;-78
2023/01/12 01:31:32;;;;;;;5.53;2.17;;;;;;;;;;4952344;28;20222;-80
2023/01/12 01:34:00;;;;;;;4.77;1.97;;;;;;;;;;4947856;28;20286;-80
2023/01/12 01:36:25;;;;;;;3.03;1.80;;;;;;;;;;4937305;28;20284;-79
2023/01/12 01:38:53;;;;;;;5.80;1.97;;;;;;;;;;4951423;28;20234;-79
2023/01/12 01:41:29;;;;;;;3.87;2.10;;;;;;;;;;4944409;28;20733;-80
2023/01/12 01:43:57;;;;;;;6.40;1.60;;;;;;;;;;4965874;28;20234;-80
2023/01/12 01:46:37;;;;;;;4.37;1.70;;;;;;;;;;4938594;28;20238;-81
2023/01/12 01:49:29;;;;;;;7.63;2.27;;;;;;;;;;4957659;28;20217;-80
2023/01/12 01:52:11;;;;;;;3.97;1.90;;;;;;;;;;4942046;28;20230;-80
2023/01/12 01:54:39;;;;;;;3.93;1.57;;;;;;;;;;4944537;28;20317;-79
2023/01/12 01:57:05;;;;;;;6.90;2.17;;;;;;;;;;4938164;28;20230;-80
2023/01/12 01:59:33;;;;;;;6.43;2.13;;;;;;;;;;4931770;28;20230;-80
2023/01/12 02:01:59;;;;;;;4.83;2.20;;;;;;;;;;4955953;28;20218;-78
2023/01/12 02:04:29;;;;;;;5.20;1.60;;;;;;;;;;4939357;28;20215;-78
2023/01/12 02:06:54;;;;;;;6.60;1.50;;;;;;;;;;4949403;28;20226;-79
2023/01/12 02:09:25;;;;;;;7.87;2.37;;;;;;;;;;4921884;28;20218;-79
2023/01/12 02:17:50;;;;;;;5.17;2.13;;;;;;;;;;4952702;28;20226;-78
2023/01/12 02:20:20;;;;;;;6.77;2.27;;;;;;;;;;4967895;28;20827;-79
2023/01/12 02:23:11;;;;;;;4.87;2.00;;;;;;;;;;4960382;28;20226;-80
2023/01/12 02:25:55;;;;;;;5.63;2.20;;;;;;;;;;4953711;28;20245;-80
2023/01/12 02:28:47;;;;;;;4.73;2.20;;;;;;;;;;4952923;28;20231;-79
2023/01/12 02:31:19;;;;;;;9.90;2.60;;;;;;;;;;4961839;28;20223;-79
2023/01/12 02:34:13;;;;;;;5.20;2.60;;;;;;;;;;4962815;28;20239;-78
2023/01/12 02:36:53;;;;;;;5.57;2.40;;;;;;;;;;4945637;28;20226;-79
2023/01/12 02:39:44;;;;;;;7.43;2.73;;;;;;;;;;4958358;28;20710;-80
2023/01/12 02:42:41;;;;;;;4.47;2.43;;;;;;;;;;4953952;28;20256;-80
2023/01/12 02:45:23;;;;;;;16.30;2.43;;;;;;;;;;4945302;28;20214;-81
2023/01/12 02:47:58;;;;;;;4.67;2.27;;;;;;;;;;4964906;28;20703;-81
2023/01/12 02:50:50;;;;;;;5.60;2.00;;;;;;;;;;4966743;28;20328;-79
2023/01/12 02:53:23;;;;;;;3.30;1.90;;;;;;;;;;4954517;28;20262;-81
2023/01/12 02:55:55;;;;;;;3.93;1.83;;;;;;;;;;4922355;28;20237;-80
2023/01/12 02:58:24;;;;;;;5.20;1.93;;;;;;;;;;4949895;28;20227;-80
2023/01/12 03:00:53;;;;;;;6.03;2.23;;;;;;;;;;4954584;28;20226;-80
2023/01/12 03:03:21;;;;;;;5.57;2.40;;;;;;;;;;4954607;28;20235;-80
2023/01/12 03:05:47;;;;;;;7.33;1.90;;;;;;;;;;4954005;28;20225;-81
2023/01/12 03:08:22;;;;;;;5.23;1.80;;;;;;;;;;4942357;28;20229;-81
2023/01/12 03:10:53;;;;;;;6.50;1.87;;;;;;;;;;4927181;28;20237;-80
2023/01/12 03:13:22;;;;;;;6.87;2.10;;;;;;;;;;4965806;28;20246;-79
2023/01/12 03:15:49;;;;;;;5.90;1.90;;;;;;;;;;4941531;28;20230;-80
2023/01/12 03:18:35;;;;;;;5.93;1.80;;;;;;;;;;4916914;28;20248;-80
2023/01/12 03:21:12;;;;;;;4.53;1.70;;;;;;;;;;4952222;28;20204;-80
2023/01/12 03:23:49;;;;;;;5.30;1.80;;;;;;;;;;4956107;28;20250;-79
2023/01/12 03:26:18;;;;;;;4.63;1.80;;;;;;;;;;4956807;28;20324;-80
2023/01/12 03:28:45;;;;;;;4.93;1.50;;;;;;;;;;4965636;28;20230;-80
2023/01/12 03:31:11;;;;;;;6.90;1.57;;;;;;;;;;4940900;28;20219;-80
2023/01/12 03:33:40;;;;;;;4.50;1.40;;;;;;;;;;4945230;28;20262;-78
2023/01/12 03:36:32;;;;;;;5.23;1.40;;;;;;;;;;4967774;28;20327;-80
2023/01/12 03:39:20;;;;;;;4.90;1.47;;;;;;;;;;4950654;28;20282;-79
2023/01/12 03:42:11;;;;;;;3.47;1.40;;;;;;;;;;4947455;28;20261;-81
2023/01/12 03:44:44;;;;;;;3.77;1.40;;;;;;;;;;4941345;28;20671;-81
2023/01/12 03:47:19;;;;;;;6.87;1.60;;;;;;;;;;4940541;28;20261;-81
2023/01/12 03:49:53;;;;;;;3.87;1.80;;;;;;;;;;4924993;28;20230;-79
2023/01/12 03:52:21;;;;;;;4.43;1.43;;;;;;;;;;4966215;28;20217;-79
2023/01/12 03:54:52;;;;;;;2.23;1.27;;;;;;;;;;4926570;28;20235;-81
2023/01/12 03:57:20;;;;;;;2.37;1.20;;;;;;;;;;4951908;28;20254;-81
2023/01/12 03:59:46;;;;;;;3.27;1.60;;;;;;;;;;4956398;28;20596;-77
2023/01/12 04:02:14;;;;;;;1.40;1.20;;;;;;;;;;4945854;28;20717;-79
2023/01/12 04:04:40;;;;;;;2.30;1.30;;;;;;;;;;4925686;28;20226;-79
2023/01/12 04:07:07;;;;;;;3.33;1.47;;;;;;;;;;4924993;28;20222;-80
2023/01/12 04:09:33;;;;;;;3.27;1.57;;;;;;;;;;4942972;28;20228;-80
2023/01/12 04:12:10;;;;;;;2.43;1.40;;;;;;;;;;4944988;28;20222;-80
2023/01/12 04:14:44;;;;;;;4.77;1.50;;;;;;;;;;4932578;28;20249;-79
2023/01/12 04:17:13;;;;;;;4.27;1.37;;;;;;;;;;4932164;28;20230;-80
2023/01/12 04:19:41;;;;;;;3.93;1.50;;;;;;;;;;4949969;28;20234;-77
2023/01/12 04:24:53;;;;;;;2.87;1.57;;;;;;;;;;4951641;28;20249;-79
2023/01/12 04:27:24;;;;;;;2.27;1.50;;;;;;;;;;4946926;28;20223;-80
2023/01/12 04:29:52;;;;;;;2.20;1.50;;;;;;;;;;4942504;28;20261;-78
2023/01/12 04:32:20;;;;;;;3.17;1.47;;;;;;;;;;4933571;28;20774;-79
2023/01/12 04:34:47;;;;;;;3.70;1.73;;;;;;;;;;4916262;28;20249;-79
2023/01/12 04:37:18;;;;;;;4.53;1.97;;;;;;;;;;4946059;28;20229;-80
2023/01/12 04:39:44;;;;;;;4.70;1.83;;;;;;;;;;4944233;28;20237;-79
2023/01/12 04:42:59;;;;;;;2.93;1.60;;;;;;;;;;4947195;28;20226;-80
2023/01/12 04:44:57;;;;;;;4.63;1.97;;;;;;;;;;4950297;28;20284;-77
2023/01/12 04:47:23;;;;;;;4.77;1.93;;;;;;;;;;4950676;23;20801;-85
2023/01/12 04:49:50;;;;;;;3.93;1.87;;;;;;;;;;4958004;28;20217;-83
2023/01/12 04:52:19;;;;;;;3.87;1.70;;;;;;;;;;4985989;28;20232;-87
2023/01/12 04:54:47;;;;;;;5.53;1.80;;;;;;;;;;4983680;28;20221;-88
2023/01/12 04:57:12;;;;;;;4.60;1.77;;;;;;;;;;4970445;28;20221;-83
2023/01/12 04:59:38;;;;;;;2.97;1.67;;;;;;;;;;4980816;28;20214;-88
2023/01/12 05:02:06;;;;;;;4.47;1.57;;;;;;;;;;4961057;28;20221;-88
2023/01/12 05:04:34;;;;;;;2.60;1.60;;;;;;;;;;4942793;28;20222;-88
2023/01/12 05:07:04;;;;;;;5.27;2.00;;;;;;;;;;4958065;28;20662;-87
2023/01/12 05:12:14;;;;;;;5.93;2.00;;;;;;;;;;4972562;28;20221;-87
2023/01/12 05:14:39;;;;;;;4.83;2.00;;;;;;;;;;4960615;28;20229;-89
2023/01/12 05:17:05;;;;;;;3.43;1.80;;;;;;;;;;4959509;28;20232;-88
2023/01/12 05:19:30;;;;;;;2.73;1.70;;;;;;;;;;4953668;28;20225;-87
2023/01/12 05:21:56;;;;;;;5.70;2.27;;;;;;;;;;4956592;28;20213;-87
2023/01/12 05:24:21;;;;;;;4.73;1.87;;;;;;;;;;4955579;28;20238;-89
2023/01/12 05:26:51;;;;;;;3.73;2.03;;;;;;;;;;4975190;28;20225;-87
2023/01/12 05:29:19;;;;;;;3.97;2.00;;;;;;;;;;4988402;28;20692;-90
2023/01/12 05:31:45;;;;;;;4.37;1.97;;;;;;;;;;4954222;28;20225;-89
2023/01/12 05:34:13;;;;;;;4.90;3.67;;;;;;;;;;4966092;28;20213;-85
2023/01/12 05:36:41;;;;;;;5.73;4.47;;;;;;;;;;4963728;28;20230;-84
2023/01/12 05:39:06;;;;;;;3.07;2.50;;;;;;;;;;4954559;28;20308;-88
2023/01/12 05:41:32;;;;;;;4.07;2.60;;;;;;;;;;4955915;28;20589;-89
2023/01/12 05:43:57;;;;;;;3.67;2.67;;;;;;;;;;4955904;28;20224;-87
2023/01/12 05:46:24;;;;;;;5.93;3.83;;;;;;;;;;4971952;28;20972;-87
2023/01/12 05:48:51;;;;;;;5.53;3.30;;;;;;;;;;4963424;28;20210;-87
2023/01/12 05:51:19;;;;;;;4.70;3.00;;;;;;;;;;4957274;28;20241;-87
2023/01/12 05:53:44;;;;;;;4.67;3.20;;;;;;;;;;4971509;28;20217;-88
2023/01/12 05:56:24;;;;;;;4.47;2.57;;;;;;;;;;4957032;28;20236;-86
2023/01/12 05:58:57;;;;;;;2.90;2.50;;;;;;;;;;4973526;28;20222;-88
2023/01/12 06:01:23;;;;;;;4.20;3.50;;;;;;;;;;4972872;28;20264;-86
2023/01/12 06:03:49;;;;;;;5.53;2.47;;;;;;;;;;4943142;28;20276;-87
2023/01/12 06:06:15;;;;;;;2.93;2.50;;;;;;;;;;4938343;28;20230;-86
2023/01/12 06:08:44;;;;;;;3.77;2.40;;;;;;;;;;4953560;28;20225;-88
2023/01/12 06:13:55;;;;;;;3.60;2.60;;;;;;;;;;4957800;28;20320;-88
2023/01/12 06:13:57;;;;;;;3.27;2.10;;;;;;;;;;4957953;28;20229;-87
2023/01/12 06:16:24;;;;;;;2.83;2.00;;;;;;;;;;4953464;28;20254;-87
2023/01/12 06:18:49;;;;;;;3.67;2.47;;;;;;;;;;4956658;28;20299;-86
2023/01/12 06:21:15;;;;;;;6.83;5.70;;;;;;;;;;4958434;28;21327;-86
2023/01/12 06:23:43;;;;;;;9.10;3.53;;;;;;;;;;4959195;28;20220;-85
2023/01/12 06:26:10;;;;;;;4.07;2.77;;;;;;;;;;4984827;28;20313;-85
2023/01/12 06:28:36;;;;;;;5.03;3.30;;;;;;;;;;4976460;28;20248;-89
2023/01/12 06:31:06;;;;;;;2.93;2.07;;;;;;;;;;4970654;28;20214;-85
2023/01/12 06:33:31;;;;;;;3.80;1.90;;;;;;;;;;4955689;28;20229;-86
2023/01/12 06:36:00;;;;;;;2.80;1.80;;;;;;;;;;4970703;28;21612;-87
2023/01/12 06:38:27;;;;;;;3.27;1.63;;;;;;;;;;4958884;28;20218;-88
2023/01/12 06:40:52;;;;;;;2.83;1.90;;;;;;;;;;4957930;28;20748;-84
2023/01/12 06:43:18;;;;;;;5.00;1.83;;;;;;;;;;4944178;28;20280;-86
2023/01/12 06:45:43;;;;;;;4.33;1.73;;;;;;;;;;4957599;28;20257;-87
2023/01/12 06:48:12;;;;;;;3.30;1.60;;;;;;;;;;4969556;28;20256;-88
2023/01/12 06:50:37;;;;;;;3.67;1.90;;;;;;;;;;4953461;28;20225;-88
2023/01/12 06:53:03;;;;;;;2.90;2.03;;;;;;;;;;4956381;28;20233;-88
2023/01/12 06:55:29;;;;;;;3.60;1.80;;;;;;;;;;4970716;28;20245;-87
2023/01/12 06:57:54;;;;;;;2.77;1.70;;;;;;;;;;4940313;28;20287;-87
2023/01/12 07:00:22;;;;;;;3.13;1.60;;;;;;;;;;4955088;28;20311;-89
2023/01/12 07:02:49;;;;;;;2.00;1.83;;;;;;;;;;4953506;28;20879;-88
2023/01/12 07:05:15;;;;;;;2.70;1.67;;;;;;;;;;4954978;28;20312;-90
2023/01/12 07:07:41;;;;;;;3.00;1.83;;;;;;;;;;4955289;28;20276;-86
2023/01/12 07:10:08;;;;;;;5.77;1.73;;;;;;;;;;4972421;28;20304;-88
2023/01/12 07:12:36;;;;;;;2.67;1.73;;;;;;;;;;4937752;28;20225;-87
2023/01/12 07:15:05;;;;;;;2.23;1.27;;;;;;;;;;4986695;28;20237;-88
2023/01/12 07:17:33;;;;;;;4.47;1.67;;;;;;;;;;4969379;28;20229;-87
2023/01/12 07:19:58;;;;;;;3.10;1.57;;;;;;;;;;4953304;28;20225;-84
2023/01/12 07:22:29;;;;;;;1.53;1.37;;;;;;;;;;4969786;28;20218;-85
2023/01/12 07:24:57;;;;;;;1.80;1.03;;;;;;;;;;4958168;28;20194;-87
2023/01/12 07:27:25;;;;;;;2.87;1.33;;;;;;;;;;4959341;28;20248;-88
2023/01/12 07:29:53;;;;;;;1.87;1.23;;;;;;;;;;4959718;28;20688;-86
2023/01/12 07:32:19;;;;;;;1.50;1.17;;;;;;;;;;4975610;28;20226;-85
2023/01/12 07:34:46;;;;;;;3.23;1.10;;;;;;;;;;4961184;28;20565;-87
2023/01/12 07:37:14;;;;;;;3.73;1.27;;;;;;;;;;4964709;28;20234;-85
2023/01/12 07:39:41;;;;;;;2.23;1.10;;;;;;;;;;4961842;28;20245;-86
2023/01/12 07:42:22;;;;;;;2.00;0.90;;;;;;;;;;4948383;28;20224;-89
2023/01/12 07:44:50;;;;;;;2.00;1.10;;;;;;;;;;4981739;28;20297;-87
2023/01/12 07:47:15;;;;;;;1.13;0.80;;;;;;;;;;4964241;28;20287;-85
2023/01/12 07:49:43;;;;;;;1.97;0.97;;;;;;;;;;4948801;28;20229;-86
2023/01/12 07:52:12;;;;;;;0.67;0.67;;;;;;;;;;4974715;28;20243;-86
2023/01/12 07:54:39;;;;;;;1.93;1.10;;;;;;;;;;4944730;28;20684;-88
2023/01/12 07:57:11;;;;;;;3.27;2.97;;;;;;;;;;4964320;28;20284;-85
2023/01/12 07:59:41;;;;;;;4.47;4.03;;;;;;;;;;4943391;28;20229;-81
2023/01/12 08:02:15;;;;;;;2.83;2.20;;;;;;;;;;4963068;28;20221;-85
2023/01/12 08:04:41;;;;;;;2.30;1.83;;;;;;;;;;4976307;28;20220;-88
2023/01/12 08:07:10;;;;;;;2.20;1.20;;;;;;;;;;4959560;28;20226;-87
2023/01/12 08:09:38;;;;;;;1.97;1.07;;;;;;;;;;4961435;28;20820;-86
2023/01/12 08:12:06;;;;;;;2.83;1.03;;;;;;;;;;4963408;28;20236;-86
2023/01/12 08:14:36;;;;;;;2.43;1.40;;;;;;;;;;4953682;28;20661;-88
2023/01/12 08:17:02;;;;;;;0.93;0.60;;;;;;;;;;4944219;28;20231;-86
2023/01/12 08:19:36;;;;;;;0.97;0.60;;;;;;;;;;4966469;28;20269;-86
2023/01/12 08:22:02;;;;;;;0.90;0.70;;;;;;;;;;4969491;28;20224;-85
2023/01/12 08:24:31;;;;;;;0.70;0.50;;;;;;;;;;4982947;28;20209;-85
2023/01/12 08:26:58;;;;;;;1.17;0.60;;;;;;;;;;4983828;28;20252;-87
2023/01/12 08:29:30;;;;;;;1.27;0.70;;;;;;;;;;4966209;28;20965;-86
2023/01/12 08:32:03;;;;;;;0.43;0.43;;;;;;;;;;4968256;28;20220;-85
2023/01/12 08:34:31;;;;;;;2.30;0.40;;;;;;;;;;4966339;28;20241;-88
2023/01/12 08:37:00;;;;;;;0.40;0.40;;;;;;;;;;4968395;28;20304;-85
2023/01/12 08:39:28;;;;;;;0.60;0.60;;;;;;;;;;4961828;28;20501;-86
2023/01/12 08:41:53;;;;;;;0.63;0.50;;;;;;;;;;4958809;28;20227;-85
2023/01/12 08:44:28;;;;;;;4.00;3.63;;;;;;;;;;4976855;28;20639;-86
2023/01/12 08:46:56;;;;;;;15.07;10.60;;;;;;;;;;4948462;28;20217;-87
2023/01/12 08:49:24;;;;;;;0.90;0.70;;;;;;;;;;4961925;28;21038;-86
2023/01/12 08:51:52;;;;;;;0.40;0.40;;;;;;;;;;4985958;28;20232;-86
2023/01/12 08:54:18;;;;;;;0.60;0.60;;;;;;;;;;4967319;28;20302;-87
2023/01/12 08:56:44;;;;;;;0.60;0.60;;;;;;;;;;4966086;28;20637;-88
2023/01/12 08:59:12;;;;;;;0.77;0.73;;;;;;;;;;4965928;28;20225;-83
2023/01/12 09:01:38;;;;;;;1.70;0.47;;;;;;;;;;4960328;28;20280;-87
2023/01/12 09:04:03;;;;;;;0.70;0.53;;;;;;;;;;4974511;28;20300;-83
2023/01/12 09:06:31;;;;;;;0.70;0.40;;;;;;;;;;4962422;28;20568;-86
2023/01/12 09:08:58;;;;;;;1.67;0.40;;;;;;;;;;4976225;28;20709;-86
2023/01/12 09:11:23;;;;;;;0.80;0.80;;;;;;;;;;4948186;28;20671;-85
2023/01/12 09:13:51;;;;;;;2.63;2.43;;;;;;;;;;4972250;28;20228;-85
2023/01/12 09:16:21;;;;;;;1.33;0.90;;;;;;;;;;4974404;28;20274;-85
2023/01/12 09:18:49;;;;;;;0.60;0.60;;;;;;;;;;4947024;28;20229;-83
2023/01/12 09:21:19;;;;;;;0.40;0.40;;;;;;;;;;4963014;28;20240;-85
2023/01/12 09:23:44;;;;;;;0.73;0.50;;;;;;;;;;4963688;28;20249;-86
2023/01/12 09:26:14;;;;;;;1.43;0.60;;;;;;;;;;4970083;28;20232;-84
2023/01/12 09:28:43;;;;;;;1.23;0.70;;;;;;;;;;4973394;28;20217;-85
2023/01/12 09:31:14;;;;;;;5.60;3.50;;;;;;;;;;4978680;28;20228;-84
2023/01/12 09:33:39;;;;;;;8.33;7.33;;;;;;;;;;4950805;28;20226;-83
2023/01/12 09:36:12;;;;;;;2.07;1.87;;;;;;;;;;4980003;28;20707;-86
2023/01/12 09:38:38;;;;;;;1.40;1.23;;;;;;;;;;4961533;28;20217;-87
2023/01/12 09:47:38;;;;;;;1.47;0.90;;;;;;;;;;4978443;28;20763;-86
2023/01/12 09:50:15;;;;;;;0.70;0.40;;;;;;;;;;4959531;28;20271;-87
2023/01/12 09:52:48;;;;;;;1.50;0.60;;;;;;;;;;4964224;28;20213;-86
2023/01/12 09:55:17;;;;;;;0.50;0.50;;;;;;;;;;4996131;28;20260;-88
2023/01/12 09:58:01;;;;;;;0.93;0.57;;;;;;;;;;4976091;28;20221;-86
2023/01/12 10:00:29;;;;;;;0.60;0.60;;;;;;;;;;4990856;28;20262;-85
2023/01/12 10:03:06;;;;;;;0.70;0.57;;;;;;;;;;4955958;28;20229;-88
2023/01/12 10:05:39;;;;;;;0.53;0.40;;;;;;;;;;4977344;28;20312;-85
2023/01/12 10:08:07;;;;;;;0.40;0.40;;;;;;;;;;4985046;28;20229;-88
2023/01/12 10:10:35;;;;;;;0.60;0.60;;;;;;;;;;4957635;28;20225;-85
2023/01/12 10:13:02;;;;;;;0.50;0.50;;;;;;;;;;4961095;28;20981;-84
2023/01/12 10:15:36;;;;;;;0.43;0.30;;;;;;;;;;4985946;28;20692;-87
2023/01/12 10:18:08;;;;;;;0.50;0.50;;;;;;;;;;5003236;28;20220;-88
2023/01/12 10:20:43;;;;;;;2.27;0.60;;;;;;;;;;4968527;28;20583;-85
2023/01/12 10:23:10;;;;;;;0.47;0.40;;;;;;;;;;4979451;28;20224;-85
2023/01/12 10:25:41;;;;;;;2.00;0.60;;;;;;;;;;4978874;28;20600;-86
2023/01/12 10:28:29;;;;;;;0.60;0.60;;;;;;;;;;4992822;28;20234;-84
2023/01/12 10:30:55;;;;;;;0.50;0.50;;;;;;;;;;4961093;28;20243;-86
2023/01/12 10:33:25;;;;;;;0.40;0.40;;;;;;;;;;4969664;28;20236;-88
2023/01/12 10:35:52;;;;;;;0.30;0.30;;;;;;;;;;4963101;28;20316;-87
2023/01/12 10:38:25;;;;;;;0.40;0.40;;;;;;;;;;4948175;28;20228;-84
2023/01/12 10:41:17;;;;;;;0.27;0.27;;;;;;;;;;4972966;28;20227;-84
2023/01/12 10:44:04;;;;;;;0.40;0.40;;;;;;;;;;4976255;28;20221;-86
2023/01/12 10:46:32;;;;;;;1.30;0.70;;;;;;;;;;4956272;28;20229;-87
2023/01/12 10:49:19;;;;;;;0.47;0.47;;;;;;;;;;4979306;28;20217;-85
2023/01/12 10:52:23;;;;;;;1.70;0.50;;;;;;;;;;4992040;28;20233;-83
2023/01/12 10:54:48;;;;;;;0.57;0.57;;;;;;;;;;4970281;28;20282;-86
2023/01/12 10:57:20;;;;;;;1.13;1.03;;;;;;;;;;4981320;28;20233;-85
2023/01/12 10:59:57;;;;;;;0.70;0.70;;;;;;;;;;4957100;28;20255;-88
2023/01/12 11:02:27;;;;;;;0.60;0.60;;;;;;;;;;4963060;28;22793;-86
2023/01/12 11:05:00;;;;;;;0.70;0.60;;;;;;;;;;4965065;28;20275;-82
2023/01/12 11:07:29;;;;;;;0.53;0.53;;;;;;;;;;4959724;28;20214;-82
2023/01/12 11:10:37;;;;;;;1.03;1.00;;;;;;;;;;4966242;28;20646;-87
2023/01/12 11:13:04;;;;;;;1.37;0.80;;;;;;;;;;4994261;28;20224;-87
2023/01/12 11:15:37;;;;;;;0.60;0.50;;;;;;;;;;4954794;28;20237;-84
2023/01/12 11:18:31;;;;;;;0.57;0.57;;;;;;;;;;4960479;28;20248;-87
2023/01/12 11:21:04;;;;;;;0.60;0.60;;;;;;;;;;4994697;28;20270;-85
2023/01/12 11:23:53;;;;;;;0.63;0.60;;;;;;;;;;4962808;28;20744;-85
2023/01/12 11:26:50;;;;;;;1.10;0.90;;;;;;;;;;4983165;28;20286;-85
2023/01/12 11:29:36;;;;;;;0.70;0.70;;;;;;;;;;4980373;28;20216;-91
2023/01/12 11:32:13;;;;;;;1.00;1.00;;;;;;;;;;5000658;28;20236;-88
2023/01/12 11:35:02;;;;;;;0.90;0.90;;;;;;;;;;4952677;28;20332;-86
2023/01/12 11:37:28;;;;;;;0.67;0.60;;;;;;;;;;4983277;28;20226;-84
2023/01/12 11:40:04;;;;;;;0.70;0.70;;;;;;;;;;4981840;28;20655;-83
2023/01/12 11:45:16;;;;;;;0.90;0.90;;;;;;;;;;4970384;28;20229;-90
2023/01/12 11:48:04;;;;;;;0.70;0.70;;;;;;;;;;4962398;28;20652;-87
2023/01/12 11:50:32;;;;;;;0.73;0.73;;;;;;;;;;4959539;28;20233;-85
2023/01/12 11:53:04;;;;;;;0.50;0.50;;;;;;;;;;4956026;28;20227;-85
2023/01/12 11:55:57;;;;;;;0.70;0.70;;;;;;;;;;4985173;28;20293;-88
2023/01/12 11:58:30;;;;;;;10.73;7.83;;;;;;;;;;4992729;28;20788;-84
2023/01/12 12:01:06;;;;;;;6.30;4.93;;;;;;;;;;4977611;28;20222;-87
2023/01/12 12:03:41;;;;;;;1.77;1.50;;;;;;;;;;4973152;28;20236;-86
2023/01/12 12:06:17;;;;;;;1.03;0.90;;;;;;;;;;4974148;28;20233;-85
2023/01/12 12:08:42;;;;;;;0.70;0.70;;;;;;;;;;4971439;28;20247;-89
2023/01/12 12:11:37;;;;;;;0.80;0.80;;;;;;;;;;4997242;28;20221;-87
2023/01/12 12:14:40;;;;;;;0.80;0.80;;;;;;;;;;4988934;28;20226;-88
2023/01/12 12:17:09;;;;;;;0.80;0.80;;;;;;;;;;5000078;28;20238;-88
2023/01/12 12:20:14;;;;;;;0.63;0.63;;;;;;;;;;4978158;28;20257;-87
2023/01/12 12:22:55;;;;;;;0.93;0.50;;;;;;;;;;4954821;28;20226;-86
2023/01/12 12:26:09;;;;;;;0.53;0.53;;;;;;;;;;4967745;28;20226;-88
2023/01/12 12:28:51;;;;;;;0.70;0.70;;;;;;;;;;4985861;28;20396;-86
2023/01/12 12:31:38;;;;;;;0.70;0.70;;;;;;;;;;4983375;28;20271;-86
2023/01/12 12:34:25;;;;;;;0.60;0.60;;;;;;;;;;4978765;28;20676;-88
2023/01/12 12:37:06;;;;;;;1.60;1.43;;;;;;;;;;4956745;28;20325;-90
2023/01/12 12:39:44;;;;;;;1.13;0.93;;;;;;;;;;4993244;28;20226;-88
2023/01/12 12:45:25;;;;;;;2.23;0.80;;;;;;;;;;5004277;28;20279;-85
2023/01/12 12:47:57;;;;;;;0.80;0.80;;;;;;;;;;4964028;28;20725;-85
2023/01/12 12:50:33;;;;;;;2.67;1.30;;;;;;;;;;4994018;28;20229;-84
2023/01/12 12:53:26;;;;;;;3.17;2.60;;;;;;;;;;4997439;28;20617;-85
2023/01/12 12:55:52;;;;;;;1.33;0.90;;;;;;;;;;4993607;28;20241;-84
2023/01/12 12:58:24;;;;;;;0.70;0.70;;;;;;;;;;4966414;28;20229;-85
2023/01/12 13:00:50;;;;;;;6.67;3.67;;;;;;;;;;4968207;28;20225;-85
2023/01/12 13:03:37;;;;;;;3.33;2.40;;;;;;;;;;4964189;28;20229;-89
2023/01/12 13:06:29;;;;;;;0.90;0.90;;;;;;;;;;5003227;28;20225;-86
2023/01/12 13:09:12;;;;;;;2.67;1.20;;;;;;;;;;4958360;28;20221;-87
2023/01/12 13:12:20;;;;;;;1.17;0.83;;;;;;;;;;4978890;28;20227;-88
2023/01/12 13:15:14;;;;;;;1.53;1.00;;;;;;;;;;4934301;28;20297;-85
2023/01/12 13:17:42;;;;;;;0.60;0.60;;;;;;;;;;4987394;28;20233;-86
2023/01/12 13:20:10;;;;;;;1.60;1.50;;;;;;;;;;4975106;28;20229;-88
2023/01/12 13:22:49;;;;;;;1.40;1.30;;;;;;;;;;5009808;28;20232;-87
2023/01/12 13:25:23;;;;;;;0.80;0.80;;;;;;;;;;4976732;28;20225;-85
2023/01/12 13:27:55;;;;;;;2.03;1.40;;;;;;;;;;5027090;28;20235;-85
2023/01/12 13:30:39;;;;;;;2.03;1.60;;;;;;;;;;5019238;28;21044;-87
2023/01/12 13:33:13;;;;;;;1.20;1.10;;;;;;;;;;4974989;28;20213;-87
2023/01/12 13:35:39;;;;;;;1.23;1.13;;;;;;;;;;4999606;28;20264;-87
2023/01/12 13:38:32;;;;;;;1.90;1.67;;;;;;;;;;5006357;28;20226;-86
2023/01/12 13:41:13;;;;;;;0.93;0.80;;;;;;;;;;5005440;28;20281;-87
2023/01/12 13:43:43;;;;;;;1.90;0.70;;;;;;;;;;4999831;28;20235;-85
2023/01/12 13:46:13;;;;;;;0.80;0.80;;;;;;;;;;4994530;28;20240;-88
2023/01/12 13:48:44;;;;;;;1.80;1.70;;;;;;;;;;4970447;28;20311;-88
2023/01/12 13:51:22;;;;;;;0.57;0.50;;;;;;;;;;4978955;28;20221;-87
2023/01/12 13:54:04;;;;;;;0.50;0.50;;;;;;;;;;4945873;28;20229;-88
2023/01/12 13:56:30;;;;;;;0.77;0.77;;;;;;;;;;4975620;28;20236;-88
2023/01/12 13:59:00;;;;;;;3.53;2.87;;;;;;;;;;4966041;28;20256;-88
2023/01/12 14:01:37;;;;;;;2.03;1.17;;;;;;;;;;4934467;28;20233;-87
2023/01/12 14:04:17;;;;;;;0.83;0.80;;;;;;;;;;4981046;28;20225;-88
2023/01/12 14:06:51;;;;;;;0.97;0.93;;;;;;;;;;4994024;28;20233;-89
2023/01/12 14:09:40;;;;;;;0.73;0.73;;;;;;;;;;4983751;28;20229;-88
2023/01/12 14:12:34;;;;;;;5.40;2.93;;;;;;;;;;4988603;28;20248;-88
2023/01/12 14:18:23;;;;;;;0.80;0.80;;;;;;;;;;5001850;28;20221;-87
2023/01/12 14:20:50;;;;;;;3.13;2.23;;;;;;;;;;4961639;28;20220;-86
2023/01/12 14:23:25;;;;;;;0.83;0.83;;;;;;;;;;4980183;28;20284;-88
2023/01/12 14:26:04;;;;;;;1.20;1.00;;;;;;;;;;4997594;28;20232;-88
2023/01/12 14:28:29;;;;;;;1.30;1.20;;;;;;;;;;4986390;28;20275;-87
2023/01/12 14:30:55;;;;;;;1.53;1.10;;;;;;;;;;4975129;28;20220;-87
2023/01/12 14:33:33;;;;;;;1.97;1.40;;;;;;;;;;4985943;28;20240;-87
2023/01/12 14:36:26;;;;;;;1.80;1.30;;;;;;;;;;4965557;28;20781;-87
2023/01/12 14:38:51;;;;;;;0.83;0.83;;;;;;;;;;4979591;28;20312;-88
2023/01/12 14:46:50;;;;;;;1.40;1.30;;;;;;;;;;4966399;28;20257;-89
2023/01/12 14:49:21;;;;;;;1.00;1.00;;;;;;;;;;4954018;28;20229;-87
2023/01/12 14:52:19;;;;;;;3.17;1.57;;;;;;;;;;4964701;28;20244;-89
2023/01/12 14:54:46;;;;;;;0.83;0.83;;;;;;;;;;4999552;28;20253;-87
2023/01/12 14:57:18;;;;;;;0.60;0.60;;;;;;;;;;4980439;28;20225;-87
2023/01/12 14:59:47;;;;;;;1.63;1.53;;;;;;;;;;4980969;28;20777;-87
2023/01/12 15:05:53;;;;;;;1.30;1.20;;;;;;;;;;4956786;23;20248;-81
2023/01/12 15:08:26;;;;;;;1.70;1.60;;;;;;;;;;4978885;28;20240;-80
2023/01/12 15:11:14;;;;;;;2.07;1.97;;;;;;;;;;4958864;28;20229;-81
2023/01/12 15:13:42;;;;;;;1.20;1.10;;;;;;;;;;4956081;28;20254;-80
2023/01/12 15:27:10;;;;;;;1.73;1.63;;;;;;;;;;4945857;28;20285;-82
2023/01/12 15:29:35;;;;;;;2.30;2.10;;;;;;;;;;4942241;28;20305;-82
2023/01/12 15:32:04;;;;;;;1.33;1.23;;;;;;;;;;4954018;28;20244;-81
2023/01/12 15:34:32;;;;;;;1.30;1.30;;;;;;;;;;4956499;28;20218;-82
2023/01/12 15:36:58;;;;;;;1.47;1.37;;;;;;;;;;4943788;28;20221;-79
2023/01/12 15:39:24;;;;;;;1.23;1.13;;;;;;;;;;4957317;28;20239;-79
2023/01/12 15:44:37;;;;;;;1.10;1.10;;;;;;;;;;4958902;28;20225;-79
2023/01/12 15:47:03;;;;;;;2.13;1.97;;;;;;;;;;4957836;28;20757;-81
2023/01/12 15:49:28;;;;;;;1.80;1.70;;;;;;;;;;4945078;28;20234;-81
2023/01/12 15:51:56;;;;;;;1.80;1.70;;;;;;;;;;4936497;28;20723;-83
2023/01/12 15:54:21;;;;;;;1.30;1.20;;;;;;;;;;4949905;28;20257;-81
2023/01/12 15:56:51;;;;;;;1.50;1.40;;;;;;;;;;4946944;28;20236;-82
2023/01/12 15:59:16;;;;;;;1.40;1.30;;;;;;;;;;4946010;28;20218;-79
2023/01/12 16:01:45;;;;;;;1.90;1.80;;;;;;;;;;4961112;28;20233;-80
2023/01/12 16:04:21;;;;;;;1.67;1.57;;;;;;;;;;4944129;28;20222;-82
2023/01/12 16:06:50;;;;;;;1.43;1.33;;;;;;;;;;4929506;28;20225;-82
2023/01/12 16:09:18;;;;;;;1.40;1.30;;;;;;;;;;4931316;28;20240;-80
2023/01/12 16:11:46;;;;;;;1.60;1.50;;;;;;;;;;4958014;28;20222;-80